Time;durP1;ratioP1;P1;durP2;ratioP2;P2;SDS_P1;SDS_P2;PMS_P1;PMS_P2;Temp;Humidity;BMP_temperature;BMP_pressure;BME280_temperature;BME280_humidity;BME280_pressure;Samples;Min_cycle;Max_cycle;Signal;HPM_P1;HPM_P2
2022/07/29 10:37:06;;;;;;;7.43;5.93;;;;;;;;;;1459407;26;20610;-63
2022/07/29 10:39:38;;;;;;;8.25;5.88;;;;;;;;;;5057003;28;20513;-63
2022/07/29 10:42:14;;;;;;;6.47;5.70;;;;;;;;;;5054516;28;20048;-63
2022/07/29 10:44:41;;;;;;;11.93;6.68;;;;;;;;;;5073051;28;20081;-63
2022/07/29 10:47:07;;;;;;;9.02;6.07;;;;;;;;;;5115650;22;20105;-58
2022/07/29 10:49:33;;;;;;;9.32;5.93;;;;;;;;;;5073637;28;20032;-57
2022/07/29 10:52:06;;;;;;;9.60;6.10;;;;;;;;;;5083414;28;20522;-59
2022/07/29 10:54:36;;;;;;;7.15;5.80;;;;;;;;;;5092446;28;20043;-59
2022/07/29 10:57:22;;;;;;;8.52;6.03;;;;;;;;;;5093548;28;20485;-57
2022/07/29 10:59:49;;;;;;;6.20;5.60;;;;;;;;;;5088654;28;20033;-58
2022/07/29 11:02:36;;;;;;;7.60;5.18;;;;;;;;;;5074087;28;20127;-59
2022/07/29 11:05:03;;;;;;;7.00;5.53;;;;;;;;;;5081607;28;20091;-59
2022/07/29 11:07:29;;;;;;;8.43;6.68;;;;;;;;;;5078822;28;20105;-57
2022/07/29 11:09:55;;;;;;;;;;;;;;;;;;5073991;28;20149;-59
2022/07/29 11:12:37;;;;;;;11.23;5.32;;;;;;;;;;5073474;28;20366;-58
2022/07/29 11:15:04;;;;;;;7.90;5.72;;;;;;;;;;5073422;28;20023;-59
2022/07/29 11:17:50;;;;;;;5.85;5.00;;;;;;;;;;5073148;28;20036;-58
2022/07/29 11:20:35;;;;;;;7.40;4.97;;;;;;;;;;5072840;28;20478;-58
2022/07/29 11:23:01;;;;;;;7.72;5.78;;;;;;;;;;5072992;28;20494;-59
2022/07/29 11:25:28;;;;;;;10.43;6.47;;;;;;;;;;5073201;28;20025;-58
2022/07/29 11:27:55;;;;;;;6.43;4.88;;;;;;;;;;5076495;28;20060;-59
2022/07/29 11:30:22;;;;;;;8.68;6.10;;;;;;;;;;5088198;28;20036;-60
2022/07/29 11:32:48;;;;;;;5.45;4.95;;;;;;;;;;5093340;28;20099;-59
2022/07/29 11:35:23;;;;;;;11.88;5.25;;;;;;;;;;5093314;28;20089;-58
2022/07/29 11:38:07;;;;;;;9.00;5.75;;;;;;;;;;5093011;28;20378;-59
2022/07/29 11:40:33;;;;;;;6.72;4.57;;;;;;;;;;5071378;28;20037;-59
2022/07/29 11:42:59;;;;;;;8.52;4.90;;;;;;;;;;5071850;28;20021;-57
2022/07/29 11:45:28;;;;;;;8.38;4.93;;;;;;;;;;5073020;28;20479;-59
2022/07/29 11:47:58;;;;;;;6.13;3.90;;;;;;;;;;5072436;28;20028;-57
2022/07/29 11:50:35;;;;;;;6.63;5.85;;;;;;;;;;5089946;28;20039;-59
2022/07/29 11:53:01;;;;;;;;;;;;;;;;;;5053051;28;20021;-57
2022/07/29 11:55:27;;;;;;;6.72;5.05;;;;;;;;;;5052640;28;19915;-58
2022/07/29 11:57:54;;;;;;;4.28;3.88;;;;;;;;;;5087095;28;20028;-60
2022/07/29 12:00:30;;;;;;;6.18;4.22;;;;;;;;;;5092703;28;20020;-58
2022/07/29 12:02:58;;;;;;;6.35;5.20;;;;;;;;;;5052582;28;20040;-59
2022/07/29 12:05:38;;;;;;;4.60;4.18;;;;;;;;;;5082693;28;20031;-59
2022/07/29 12:08:05;;;;;;;8.65;5.40;;;;;;;;;;5092071;28;20025;-59
2022/07/29 12:10:32;;;;;;;7.47;5.00;;;;;;;;;;5091978;28;20111;-57
2022/07/29 12:12:57;;;;;;;;;;;;;;;;;;5072768;28;20482;-59
2022/07/29 12:15:25;;;;;;;4.75;3.97;;;;;;;;;;5073321;28;19914;-60
2022/07/29 12:17:51;;;;;;;8.23;4.72;;;;;;;;;;5071940;28;20024;-59
2022/07/29 12:20:24;;;;;;;7.72;4.65;;;;;;;;;;5077249;28;20032;-59
2022/07/29 12:22:53;;;;;;;6.47;4.50;;;;;;;;;;5092584;28;20101;-59
2022/07/29 12:25:20;;;;;;;4.85;4.20;;;;;;;;;;5092218;28;20042;-57
2022/07/29 12:27:45;;;;;;;;;;;;;;;;;;5092446;28;20027;-59
2022/07/29 12:30:15;;;;;;;6.28;4.18;;;;;;;;;;5088542;28;19908;-59
2022/07/29 12:32:48;;;;;;;6.45;3.80;;;;;;;;;;5071816;28;20037;-59
2022/07/29 12:35:19;;;;;;;7.25;3.80;;;;;;;;;;5073994;28;20058;-60
2022/07/29 12:37:47;;;;;;;4.93;3.53;;;;;;;;;;5091607;28;20035;-60
2022/07/29 12:40:16;;;;;;;4.20;3.85;;;;;;;;;;5088706;28;20482;-60
2022/07/29 12:42:42;;;;;;;10.65;3.83;;;;;;;;;;5071817;28;20020;-59
2022/07/29 12:45:08;;;;;;;8.98;5.65;;;;;;;;;;5071065;28;20016;-59
2022/07/29 12:47:51;;;;;;;4.50;3.30;;;;;;;;;;5069846;28;20037;-59
2022/07/29 12:50:17;;;;;;;7.10;4.00;;;;;;;;;;5074670;28;20034;-59
2022/07/29 12:52:43;;;;;;;;;;;;;;;;;;5092543;28;20032;-59
2022/07/29 12:55:09;;;;;;;5.95;3.72;;;;;;;;;;5091290;28;19969;-60
2022/07/29 12:57:46;;;;;;;6.40;4.15;;;;;;;;;;5091599;28;20027;-59
2022/07/29 13:00:13;;;;;;;4.60;3.58;;;;;;;;;;5089363;28;20055;-59
2022/07/29 13:02:41;;;;;;;3.45;3.13;;;;;;;;;;5070330;28;20558;-59
2022/07/29 13:05:08;;;;;;;5.30;3.78;;;;;;;;;;5083036;28;20043;-60
2022/07/29 13:07:36;;;;;;;7.85;3.90;;;;;;;;;;5072036;28;20024;-59
2022/07/29 13:10:14;;;;;;;5.57;3.58;;;;;;;;;;5071715;28;20024;-60
2022/07/29 13:13:00;;;;;;;5.43;3.13;;;;;;;;;;5091699;28;20024;-60
2022/07/29 13:15:27;;;;;;;7.82;3.30;;;;;;;;;;5091272;28;20059;-60
2022/07/29 13:17:53;;;;;;;;;;;;;;;;;;5091832;28;20035;-59
2022/07/29 13:20:19;;;;;;;8.70;2.95;;;;;;;;;;5087639;28;19920;-60
2022/07/29 13:22:48;;;;;;;4.43;3.05;;;;;;;;;;5090260;28;20028;-60
2022/07/29 13:25:14;;;;;;;14.80;3.40;;;;;;;;;;5091558;28;20060;-60
2022/07/29 13:27:40;;;;;;;5.38;2.97;;;;;;;;;;5091410;28;20034;-60
2022/07/29 13:30:08;;;;;;;9.23;3.20;;;;;;;;;;5091572;28;20024;-60
2022/07/29 13:32:34;;;;;;;5.43;3.13;;;;;;;;;;5074507;28;20090;-60
2022/07/29 13:35:02;;;;;;;6.95;3.22;;;;;;;;;;5071284;28;20495;-59
2022/07/29 13:37:29;;;;;;;6.25;3.45;;;;;;;;;;5087970;28;20081;-59
2022/07/29 13:39:55;;;;;;;6.10;3.45;;;;;;;;;;5091418;28;20177;-60
2022/07/29 13:42:22;;;;;;;4.05;3.30;;;;;;;;;;5074890;28;20024;-60
2022/07/29 13:44:51;;;;;;;4.50;3.20;;;;;;;;;;5078121;28;20074;-60
2022/07/29 13:47:18;;;;;;;8.57;3.38;;;;;;;;;;5080321;28;20887;-59
2022/07/29 13:49:44;;;;;;;4.88;3.33;;;;;;;;;;5071142;28;20028;-60
2022/07/29 13:52:10;;;;;;;6.22;3.08;;;;;;;;;;5082807;28;20031;-60
2022/07/29 13:54:37;;;;;;;6.50;3.40;;;;;;;;;;5090575;28;20120;-60
2022/07/29 13:57:03;;;;;;;13.82;4.18;;;;;;;;;;5069300;28;20082;-61
2022/07/29 13:59:29;;;;;;;;;;;;;;;;;;5078720;28;20028;-60
2022/07/29 14:01:55;;;;;;;6.65;3.95;;;;;;;;;;5074151;28;19908;-60
2022/07/29 14:04:23;;;;;;;10.57;4.15;;;;;;;;;;5073266;28;20402;-60
2022/07/29 14:06:49;;;;;;;7.93;4.30;;;;;;;;;;5074630;28;20494;-60
2022/07/29 14:09:15;;;;;;;;;;;;;;;;;;5074762;28;20059;-60
2022/07/29 14:11:41;;;;;;;5.00;3.75;;;;;;;;;;5074722;28;20379;-59
2022/07/29 14:14:07;;;;;;;5.82;4.18;;;;;;;;;;5074837;28;20245;-58
2022/07/29 14:16:33;;;;;;;7.00;3.80;;;;;;;;;;5073930;28;20425;-60
2022/07/29 14:19:00;;;;;;;7.40;3.85;;;;;;;;;;5074527;28;20021;-59
2022/07/29 14:21:26;;;;;;;;;;;;;;;;;;5075941;28;20470;-59
2022/07/29 14:23:54;;;;;;;6.30;4.22;;;;;;;;;;5074095;28;19977;-59
2022/07/29 14:26:21;;;;;;;6.45;4.10;;;;;;;;;;5074207;28;20112;-59
2022/07/29 14:28:47;;;;;;;5.75;4.18;;;;;;;;;;5073091;28;20030;-58
2022/07/29 14:31:13;;;;;;;5.47;4.32;;;;;;;;;;5086057;28;20489;-59
2022/07/29 14:33:39;;;;;;;9.57;5.05;;;;;;;;;;5083706;28;20508;-59
2022/07/29 14:36:05;;;;;;;8.20;4.45;;;;;;;;;;5084800;28;20031;-52
2022/07/29 14:38:31;;;;;;;8.52;3.83;;;;;;;;;;5075820;28;20387;-53
2022/07/29 14:40:57;;;;;;;6.03;3.67;;;;;;;;;;5077127;28;20075;-55
2022/07/29 14:43:24;;;;;;;5.00;4.03;;;;;;;;;;5087031;28;20578;-56
2022/07/29 14:45:50;;;;;;;7.35;4.07;;;;;;;;;;5082135;28;20024;-56
2022/07/29 14:48:16;;;;;;;5.10;3.83;;;;;;;;;;5076120;28;20046;-57
2022/07/29 14:50:42;;;;;;;8.23;4.43;;;;;;;;;;5077872;28;20460;-54
2022/07/29 14:53:08;;;;;;;4.15;3.42;;;;;;;;;;5086115;28;20526;-57
2022/07/29 14:55:34;;;;;;;5.90;4.38;;;;;;;;;;5084500;28;20102;-58
2022/07/29 14:58:00;;;;;;;6.97;4.50;;;;;;;;;;5084364;28;20035;-56
2022/07/29 15:00:26;;;;;;;9.63;4.78;;;;;;;;;;5080415;28;20028;-57
2022/07/29 15:02:52;;;;;;;5.32;4.82;;;;;;;;;;5078358;28;20103;-56
2022/07/29 15:05:18;;;;;;;7.97;5.13;;;;;;;;;;5084198;28;20099;-55
2022/07/29 15:07:44;;;;;;;6.82;5.13;;;;;;;;;;5080677;28;20028;-56
2022/07/29 15:10:10;;;;;;;7.43;4.70;;;;;;;;;;5076826;28;20025;-56
2022/07/29 15:12:36;;;;;;;7.05;5.38;;;;;;;;;;5073505;28;20406;-56
2022/07/29 15:15:03;;;;;;;13.20;8.40;;;;;;;;;;5072966;28;20029;-56
2022/07/29 15:17:29;;;;;;;12.20;8.77;;;;;;;;;;5078842;28;20040;-56
2022/07/29 15:19:55;;;;;;;16.70;8.68;;;;;;;;;;5086655;28;20309;-57
2022/07/29 15:22:21;;;;;;;21.08;8.93;;;;;;;;;;5093530;28;20031;-54
2022/07/29 15:24:47;;;;;;;13.20;7.43;;;;;;;;;;5076808;28;20448;-55
2022/07/29 15:27:13;;;;;;;10.65;6.60;;;;;;;;;;5087535;28;20127;-56
2022/07/29 15:29:39;;;;;;;;;;;;;;;;;;5080868;28;20024;-55
2022/07/29 15:32:06;;;;;;;11.23;6.45;;;;;;;;;;5073111;28;20488;-55
2022/07/29 15:34:32;;;;;;;8.82;6.53;;;;;;;;;;5084060;28;20110;-56
2022/07/29 15:36:58;;;;;;;13.73;6.55;;;;;;;;;;5089934;28;20024;-56
2022/07/29 15:39:24;;;;;;;9.23;6.25;;;;;;;;;;5069337;28;20391;-56
2022/07/29 15:41:50;;;;;;;8.65;6.70;;;;;;;;;;5072861;28;20024;-57
2022/07/29 15:44:16;;;;;;;12.15;7.15;;;;;;;;;;5071375;28;20608;-55
2022/07/29 15:49:30;;;;;;;10.50;6.68;;;;;;;;;;5071223;28;20051;-55
2022/07/29 15:51:58;;;;;;;9.75;7.07;;;;;;;;;;5071294;28;20025;-54
2022/07/29 15:54:24;;;;;;;14.82;7.05;;;;;;;;;;5071913;28;20035;-55
2022/07/29 15:56:50;;;;;;;10.45;7.45;;;;;;;;;;5076033;28;20030;-53
2022/07/29 15:59:16;;;;;;;10.60;8.45;;;;;;;;;;5091061;28;20024;-56
2022/07/29 16:01:42;;;;;;;10.60;8.02;;;;;;;;;;5074550;28;20497;-56
2022/07/29 16:04:08;;;;;;;11.00;7.80;;;;;;;;;;5090588;28;20502;-55
2022/07/29 16:06:34;;;;;;;13.77;7.70;;;;;;;;;;5073609;28;20028;-56
2022/07/29 16:09:00;;;;;;;14.10;7.95;;;;;;;;;;5078014;28;20034;-56
2022/07/29 16:11:26;;;;;;;10.32;7.05;;;;;;;;;;5081873;28;20446;-56
2022/07/29 16:13:52;;;;;;;12.82;7.72;;;;;;;;;;5091901;28;20356;-55
2022/07/29 16:16:18;;;;;;;13.75;7.43;;;;;;;;;;5092318;28;20482;-55
2022/07/29 16:18:45;;;;;;;10.15;6.72;;;;;;;;;;5092319;28;20024;-54
2022/07/29 16:21:11;;;;;;;11.00;6.45;;;;;;;;;;5084840;28;20406;-55
2022/07/29 16:23:38;;;;;;;9.82;6.35;;;;;;;;;;5072209;28;20170;-54
2022/07/29 16:26:04;;;;;;;8.15;5.13;;;;;;;;;;5071931;28;20091;-55
2022/07/29 16:28:30;;;;;;;8.82;5.72;;;;;;;;;;5071673;28;20029;-55
2022/07/29 16:30:56;;;;;;;11.32;6.93;;;;;;;;;;5079699;28;20024;-55
2022/07/29 16:33:23;;;;;;;10.02;6.72;;;;;;;;;;5075431;28;20024;-55
2022/07/29 16:35:49;;;;;;;8.95;6.00;;;;;;;;;;5071924;28;20020;-55
2022/07/29 16:38:15;;;;;;;12.25;7.07;;;;;;;;;;5089394;28;20390;-53
2022/07/29 16:40:41;;;;;;;10.43;6.32;;;;;;;;;;5076614;28;20483;-56
2022/07/29 16:43:07;;;;;;;8.25;6.53;;;;;;;;;;5071791;28;20197;-55
2022/07/29 16:45:34;;;;;;;7.47;5.90;;;;;;;;;;5081416;28;20154;-55
2022/07/29 16:48:01;;;;;;;10.63;6.50;;;;;;;;;;5094162;22;20114;-56
2022/07/29 16:50:27;;;;;;;10.55;6.60;;;;;;;;;;5072830;28;20039;-55
2022/07/29 16:52:54;;;;;;;9.68;6.25;;;;;;;;;;5074826;28;20382;-56
2022/07/29 16:55:20;;;;;;;8.35;6.43;;;;;;;;;;5070865;28;20056;-58
2022/07/29 16:57:46;;;;;;;10.23;7.95;;;;;;;;;;5071340;28;20032;-56
2022/07/29 17:00:12;;;;;;;10.38;8.23;;;;;;;;;;5071591;28;20505;-56
2022/07/29 17:02:39;;;;;;;14.48;8.65;;;;;;;;;;5071598;28;20617;-54
2022/07/29 17:05:08;;;;;;;11.77;7.35;;;;;;;;;;5067630;28;20453;-56
2022/07/29 17:07:34;;;;;;;12.82;8.27;;;;;;;;;;5051056;28;20028;-59
2022/07/29 17:10:03;;;;;;;13.35;8.35;;;;;;;;;;5051348;28;20043;-58
2022/07/29 17:12:30;;;;;;;13.75;8.10;;;;;;;;;;5051445;28;20027;-55
2022/07/29 17:14:56;;;;;;;12.68;9.20;;;;;;;;;;5054727;28;20037;-57
2022/07/29 17:17:22;;;;;;;9.85;7.88;;;;;;;;;;5050745;28;20040;-57
2022/07/29 17:19:48;;;;;;;11.73;8.82;;;;;;;;;;5051121;28;20036;-53
2022/07/29 17:22:14;;;;;;;10.60;8.32;;;;;;;;;;5051350;28;20100;-58
2022/07/29 17:24:40;;;;;;;10.48;7.85;;;26.10;74.80;;;;;;5051358;28;20095;-54
2022/07/29 17:27:06;;;;;;;10.57;8.73;;;26.00;77.60;;;;;;5051199;28;20021;-55
2022/07/29 17:29:33;;;;;;;12.03;9.03;;;;;;;;;;5050624;28;20029;-56
2022/07/29 17:31:59;;;;;;;14.65;8.15;;;25.60;80.00;;;;;;5051522;28;20033;-56
2022/07/29 17:34:25;;;;;;;12.70;8.80;;;25.40;80.40;;;;;;5055600;28;20562;-56
2022/07/29 17:36:51;;;;;;;13.93;9.97;;;25.50;80.70;;;;;;5054482;28;20017;-58
2022/07/29 17:39:16;;;;;;;12.70;9.03;;;25.40;80.20;;;;;;5054470;28;20383;-54
2022/07/29 17:41:45;;;;;;;16.60;9.83;;;25.40;80.70;;;;;;5054832;28;20032;-56
2022/07/29 17:44:11;;;;;;;15.48;9.43;;;25.10;81.20;;;;;;5054986;28;20017;-58
2022/07/29 17:46:36;;;;;;;11.80;8.77;;;25.00;81.00;;;;;;5068682;28;20074;-56
2022/07/29 17:49:03;;;;;;;13.17;10.03;;;25.00;80.40;;;;;;5066983;28;20889;-55
2022/07/29 17:51:29;;;;;;;16.88;10.70;;;25.00;81.10;;;;;;5058110;28;20040;-53
2022/07/29 17:53:54;;;;;;;13.43;10.37;;;25.10;81.50;;;;;;5052360;28;20029;-53
2022/07/29 17:56:20;;;;;;;12.93;9.87;;;25.00;81.70;;;;;;5063627;28;20074;-52
2022/07/29 17:58:46;;;;;;;13.05;9.27;;;24.90;81.60;;;;;;5054646;28;20087;-56
2022/07/29 18:01:13;;;;;;;12.40;9.80;;;24.90;81.90;;;;;;5055894;28;20024;-56
2022/07/29 18:03:39;;;;;;;14.50;10.63;;;24.80;81.80;;;;;;5060509;28;20032;-55
2022/07/29 18:06:05;;;;;;;14.23;10.70;;;24.80;81.40;;;;;;5074227;28;20027;-55
2022/07/29 18:08:31;;;;;;;15.13;11.63;;;24.80;81.30;;;;;;5074438;28;20055;-58
2022/07/29 18:10:57;;;;;;;17.17;11.00;;;;;;;;;;5073563;28;20040;-58
2022/07/29 18:13:23;;;;;;;12.37;10.87;;;;;;;;;;5054874;28;20090;-58
2022/07/29 18:15:49;;;;;;;12.48;10.88;;;;;;;;;;5058182;28;20384;-58
2022/07/29 18:18:17;;;;;;;10.73;9.32;;;;;;;;;;5054293;28;20363;-58
2022/07/29 18:20:43;;;;;;;13.27;9.82;;;;;;;;;;5037193;28;20025;-58
2022/07/29 18:23:09;;;;;;;14.05;9.07;;;;;;;;;;5054403;28;20491;-58
2022/07/29 18:25:35;;;;;;;13.15;9.35;;;;;;;;;;5055490;28;20029;-57
2022/07/29 18:28:03;;;;;;;14.02;8.45;;;;;;;;;;5054084;28;20036;-57
2022/07/29 18:30:32;;;;;;;10.77;8.38;;;;;;;;;;5057226;28;20024;-58
2022/07/29 18:32:58;;;;;;;9.65;7.03;;;;;;;;;;5054321;28;20406;-58
2022/07/29 18:35:23;;;;;;;10.33;6.20;;;24.60;81.50;;;;;;5053809;28;20470;-58
2022/07/29 18:37:52;;;;;;;6.77;6.07;;;24.40;78.30;;;;;;5066487;28;20298;-58
2022/07/29 18:40:19;;;;;;;8.85;6.50;;;;;;;;;;5055010;28;20036;-57
2022/07/29 18:42:46;;;;;;;8.40;6.38;;;;;;;;;;5074132;28;20094;-57
2022/07/29 18:45:12;;;;;;;7.40;5.93;;;;;;;;;;5073667;28;20025;-57
2022/07/29 18:47:39;;;;;;;7.60;5.75;;;;;;;;;;5041996;28;20028;-58
2022/07/29 18:50:05;;;;;;;6.45;5.85;;;;;;;;;;5060748;28;20056;-57
2022/07/29 18:52:31;;;;;;;;;;;;;;;;;;5068527;28;20078;-56
2022/07/29 18:54:59;;;;;;;6.70;6.05;;;;;;;;;;5073021;28;19995;-58
2022/07/29 18:57:25;;;;;;;10.13;6.20;;;;;;;;;;5053396;28;20075;-58
2022/07/29 18:59:53;;;;;;;11.20;5.93;;;;;;;;;;5053287;28;20025;-57
2022/07/29 19:02:20;;;;;;;9.77;5.18;;;;;;;;;;5060889;28;20395;-56
2022/07/29 19:04:47;;;;;;;;;;;;;;;;;;5074063;28;20048;-58
2022/07/29 19:07:13;;;;;;;6.95;5.07;;;;;;;;;;5070300;28;19966;-55
2022/07/29 19:09:39;;;;;;;6.95;4.72;;;;;;;;;;5053287;28;20029;-54
2022/07/29 19:12:05;;;;;;;7.65;5.38;;;;;;;;;;5052195;28;20021;-57
2022/07/29 19:14:32;;;;;;;6.57;5.22;;;;;;;;;;5053454;28;20063;-55
2022/07/29 19:16:58;;;;;;;6.40;5.80;;;;;;;;;;5052334;28;20017;-55
2022/07/29 19:19:24;;;;;;;7.53;5.50;;;;;;;;;;5062978;28;20047;-58
2022/07/29 19:21:50;;;;;;;6.87;5.53;;;;;;;;;;5060186;28;20376;-56
2022/07/29 19:24:17;;;;;;;7.07;6.37;;;;;;;;;;5060417;28;20664;-57
2022/07/29 19:26:45;;;;;;;6.50;5.60;;;;;;;;;;5052561;28;20044;-56
2022/07/29 19:29:12;;;;;;;11.95;7.00;;;;;;;;;;5052524;28;20482;-55
2022/07/29 19:31:39;;;;;;;8.45;6.30;;;;;;;;;;5059478;28;20024;-57
2022/07/29 19:34:06;;;;;;;6.85;5.32;;;;;;;;;;5062006;28;20036;-55
2022/07/29 19:36:32;;;;;;;5.90;5.35;;;;;;;;;;5060770;28;20376;-54
2022/07/29 19:38:59;;;;;;;6.43;5.07;;;;;;;;;;5072836;28;20037;-54
2022/07/29 19:41:25;;;;;;;;;;;;;;;;;;5057327;28;20418;-55
2022/07/29 19:43:51;;;;;;;6.68;5.45;;;;;;;;;;5052826;28;19936;-57
2022/07/29 19:46:18;;;;;;;7.30;5.30;;;;;;;;;;5053224;28;20107;-57
2022/07/29 19:48:44;;;;;;;7.97;5.80;;;;;;;;;;5066045;28;20490;-57
2022/07/29 19:51:11;;;;;;;6.88;5.68;;;;;;;;;;5061869;28;20487;-55
2022/07/29 19:53:36;;;;;;;7.75;6.45;;;24.30;78.40;;;;;;5052711;28;20055;-56
2022/07/29 19:56:03;;;;;;;10.10;6.33;;;24.40;78.40;;;;;;5067045;28;20060;-55
2022/07/29 19:58:29;;;;;;;10.18;6.22;;;24.40;78.30;;;;;;5072037;28;20039;-57
2022/07/29 20:00:54;;;;;;;9.47;6.20;;;24.40;78.30;;;;;;5056843;28;20025;-58
2022/07/29 20:03:20;;;;;;;11.07;6.90;;;24.40;78.10;;;;;;5056540;28;20103;-56
2022/07/29 20:05:49;;;;;;;11.17;6.27;;;24.40;77.80;;;;;;5072428;28;20390;-54
2022/07/29 20:08:15;;;;;;;7.90;7.10;;;;;;;;;;5071884;28;20021;-57
2022/07/29 20:10:42;;;;;;;6.57;5.97;;;;;;;;;;5072175;28;20032;-57
2022/07/29 20:13:08;;;;;;;9.05;7.63;;;;;;;;;;5054482;28;20069;-56
2022/07/29 20:15:34;;;;;;;7.40;6.70;;;;;;;;;;5072148;28;20559;-56
2022/07/29 20:18:00;;;;;;;8.75;6.57;;;;;;;;;;5056436;28;20033;-57
2022/07/29 20:20:28;;;;;;;8.48;7.38;;;;;;;;;;5054068;28;20032;-57
2022/07/29 20:22:54;;;;;;;9.48;6.47;;;;;;;;;;5068201;28;20056;-57
2022/07/29 20:25:21;;;;;;;8.45;5.45;;;;;;;;;;5049088;28;20399;-56
2022/07/29 20:27:50;;;;;;;14.68;7.55;;;;;;;;;;5056009;28;21118;-54
2022/07/29 20:30:17;;;;;;;9.50;5.90;;;;;;;;;;5050981;28;20021;-54
2022/07/29 20:32:46;;;;;;;;;;;;;;;;;;5049642;28;20032;-55
2022/07/29 20:35:15;;;;;;;9.32;6.07;;;;;;;;;;5050929;28;19905;-56
2022/07/29 20:37:44;;;;;;;8.55;7.65;;;;;;;;;;5051703;28;20040;-56
2022/07/29 20:40:11;;;;;;;9.13;7.07;;;;;;;;;;5057829;28;20035;-56
2022/07/29 20:42:37;;;;;;;6.97;6.18;;;;;;;;;;5050582;28;20025;-54
2022/07/29 20:45:03;;;;;;;8.77;6.35;;;;;;;;;;5051931;28;20025;-56
2022/07/29 20:47:30;;;;;;;9.35;6.43;;;;;;;;;;5051571;28;20029;-57
2022/07/29 20:49:56;;;;;;;8.35;6.80;;;;;;;;;;5051832;28;20037;-54
2022/07/29 20:52:22;;;;;;;8.55;6.38;;;;;;;;;;5050480;28;20505;-54
2022/07/29 20:54:48;;;;;;;7.20;6.35;;;;;;;;;;5051625;28;20029;-56
2022/07/29 20:57:14;;;;;;;11.95;7.15;;;;;;;;;;5051577;28;20114;-54
2022/07/29 20:59:42;;;;;;;7.80;6.20;;;24.40;77.90;;;;;;5051704;28;20036;-56
2022/07/29 21:02:08;;;;;;;8.30;6.55;;;24.30;78.60;;;;;;5051794;28;20031;-57
2022/07/29 21:04:35;;;;;;;8.23;6.60;;;24.30;79.20;;;;;;5051702;28;20087;-57
2022/07/29 21:07:02;;;;;;;8.43;6.82;;;24.30;79.10;;;;;;5050929;28;20036;-56
2022/07/29 21:09:28;;;;;;;8.32;6.72;;;24.30;79.10;;;;;;5051334;28;20025;-54
2022/07/29 21:11:53;;;;;;;12.37;6.70;;;24.30;79.30;;;;;;5058601;28;20041;-56
2022/07/29 21:16:51;;;;;;;8.45;6.75;;;;;;;;;;5065606;28;20128;-55
2022/07/29 21:19:18;;;;;;;10.50;8.60;;;;;;;;;;5051369;28;20028;-57
2022/07/29 21:21:44;;;;;;;7.43;6.68;;;;;;;;;;5052425;28;20374;-54
2022/07/29 21:24:10;;;;;;;8.50;7.53;;;;;;;;;;5062488;28;20048;-54
2022/07/29 21:26:36;;;;;;;12.33;7.87;;;;;;;;;;5067986;28;20036;-57
2022/07/29 21:29:02;;;;;;;8.83;7.27;;;;;;;;;;5051228;28;20812;-57
2022/07/29 21:31:28;;;;;;;12.07;8.07;;;;;;;;;;5054931;28;20055;-55
2022/07/29 21:33:54;;;;;;;9.20;8.20;;;;;;;;;;5069683;28;20029;-56
2022/07/29 21:36:20;;;;;;;10.23;8.10;;;;;;;;;;5070813;28;20301;-56
2022/07/29 21:38:46;;;;;;;10.53;9.43;;;;;;;;;;5069475;28;20274;-56
2022/07/29 21:41:13;;;;;;;10.20;8.50;;;;;;;;;;5062109;28;20111;-57
2022/07/29 21:43:41;;;;;;;10.77;9.27;;;;;;;;;;5054850;28;20052;-58
2022/07/29 21:46:07;;;;;;;10.82;9.73;;;;;;;;;;5070818;28;20401;-57
2022/07/29 21:48:33;;;;;;;10.73;9.57;;;;;;;;;;5069239;28;20040;-57
2022/07/29 21:50:59;;;;;;;11.30;9.07;;;;;;;;;;5069307;28;20277;-57
2022/07/29 21:53:25;;;;;;;11.73;9.48;;;;;;;;;;5069701;28;20033;-57
2022/07/29 21:55:53;;;;;;;9.82;8.82;;;;;;;;;;5051094;28;20033;-57
2022/07/29 21:58:20;;;;;;;12.20;9.13;;;;;;;;;;5051879;28;20025;-54
2022/07/29 22:00:45;;;;;;;;;;;;;;;;;;5062875;28;20029;-55
2022/07/29 22:03:12;;;;;;;14.70;9.85;;;;;;;;;;5063955;28;19916;-56
2022/07/29 22:05:38;;;;;;;9.90;8.90;;;;;;;;;;5051850;28;20365;-57
2022/07/29 22:08:04;;;;;;;12.20;8.97;;;;;;;;;;5050632;28;20291;-56
2022/07/29 22:10:30;;;;;;;11.85;8.93;;;;;;;;;;5052772;28;20037;-57
2022/07/29 22:12:57;;;;;;;12.80;10.02;;;;;;;;;;5067780;28;20028;-56
2022/07/29 22:15:24;;;;;;;11.10;9.18;;;;;;;;;;5050925;28;20369;-57
2022/07/29 22:17:50;;;;;;;;;;;;;;;;;;5051024;28;20025;-57
2022/07/29 22:20:16;;;;;;;10.90;9.85;;;;;;;;;;5061001;28;19913;-54
2022/07/29 22:22:42;;;;;;;13.00;10.45;;;;;;;;;;5063376;28;20039;-56
2022/07/29 22:25:08;;;;;;;16.30;11.30;;;;;;;;;;5058259;28;20029;-54
2022/07/29 22:27:34;;;;;;;12.75;11.45;;;;;;;;;;5063903;28;20451;-56
2022/07/29 22:30:00;;;;;;;11.48;10.20;;;;;;;;;;5058817;28;20036;-56
2022/07/29 22:32:26;;;;;;;14.18;11.20;;;;;;;;;;5073947;28;20449;-55
2022/07/29 22:34:53;;;;;;;15.17;11.13;;;;;;;;;;5072060;28;20555;-56
2022/07/29 22:37:19;;;;;;;12.07;10.80;;;;;;;;;;5073518;28;20036;-57
2022/07/29 22:39:45;;;;;;;12.07;10.87;;;;;;;;;;5065330;28;20036;-57
2022/07/29 22:42:11;;;;;;;12.60;11.30;;;;;;;;;;5072035;28;20031;-57
2022/07/29 22:44:37;;;;;;;13.70;12.23;;;;;;;;;;5072420;28;20267;-57
2022/07/29 22:47:03;;;;;;;15.07;12.80;;;;;;;;;;5073619;28;20115;-58
2022/07/29 22:49:29;;;;;;;12.48;11.18;;;;;;;;;;5126702;22;20051;-53
2022/07/29 22:51:55;;;;;;;14.32;11.60;;;;;;;;;;5073793;28;20031;-54
2022/07/29 22:54:22;;;;;;;14.13;12.02;;;;;;;;;;5073925;28;20577;-53
2022/07/29 22:56:48;;;;;;;15.80;12.93;;;;;;;;;;5072399;28;20033;-51
2022/07/29 22:59:14;;;;;;;13.13;11.83;;;;;;;;;;5073641;28;20078;-51
2022/07/29 23:01:40;;;;;;;12.97;11.67;;;;;;;;;;5073146;28;20037;-52
2022/07/29 23:04:06;;;;;;;13.67;12.27;;;;;;;;;;5072101;28;20351;-52
2022/07/29 23:06:33;;;;;;;15.18;12.05;;;;;;;;;;5071787;28;20052;-52
2022/07/29 23:08:59;;;;;;;12.93;11.38;;;;;;;;;;5073590;28;20103;-53
2022/07/29 23:11:25;;;;;;;14.67;11.43;;;;;;;;;;5073339;28;20036;-54
2022/07/29 23:13:51;;;;;;;14.00;12.50;;;;;;;;;;5073227;28;20030;-53
2022/07/29 23:16:17;;;;;;;13.70;12.23;;;;;;;;;;5073253;28;20040;-52
2022/07/29 23:18:43;;;;;;;13.27;12.07;;;;;;;;;;5072892;28;20270;-54
2022/07/29 23:21:09;;;;;;;14.95;13.50;;;;;;;;;;5073124;28;20040;-53
2022/07/29 23:23:35;;;;;;;14.00;12.60;;;;;;;;;;5073150;28;20078;-53
2022/07/29 23:26:01;;;;;;;15.70;13.23;;;;;;;;;;5073199;28;20025;-53
2022/07/29 23:28:27;;;;;;;14.13;12.67;;;;;;;;;;5072679;28;20021;-54
2022/07/29 23:30:53;;;;;;;15.57;13.87;;;;;;;;;;5072705;28;20396;-53
2022/07/29 23:33:19;;;;;;;17.00;15.33;;;;;;;;;;5072532;28;20078;-52
2022/07/29 23:35:45;;;;;;;16.57;14.80;;;24.30;78.80;;;;;;5072936;28;20086;-54
2022/07/29 23:38:11;;;;;;;17.90;15.27;;;23.30;84.70;;;;;;5072492;28;20752;-51
2022/07/29 23:40:36;;;;;;;17.37;15.60;;;23.20;84.50;;;;;;5072861;28;20025;-50
2022/07/29 23:43:02;;;;;;;18.50;16.53;;;;;;;;;;5072428;28;20502;-50
2022/07/29 23:45:29;;;;;;;20.87;16.80;;;;;;;;;;5072833;28;20134;-52
2022/07/29 23:47:54;;;;;;;20.73;16.53;;;23.10;85.00;;;;;;5072345;28;20267;-51
2022/07/29 23:50:20;;;;;;;20.20;15.10;;;23.10;85.10;;;;;;5071476;28;20271;-54
2022/07/29 23:52:46;;;;;;;19.93;17.83;;;23.10;84.90;;;;;;5072465;28;20036;-51
2022/07/29 23:55:12;;;;;;;21.70;19.38;;;23.20;84.90;;;;;;5072383;28;20111;-53
2022/07/29 23:57:38;;;;;;;22.73;20.13;;;23.20;84.80;;;;;;5072424;28;20533;-54
